Time;durP1;ratioP1;P1;durP2;ratioP2;P2;SDS_P1;SDS_P2;PMS_P1;PMS_P2;Temp;Humidity;BMP_temperature;BMP_pressure;BME280_temperature;BME280_humidity;BME280_pressure;Samples;Min_cycle;Max_cycle;Signal;HPM_P1;HPM_P2
2023/10/03 00:03:52;;;;;;;38.85;22.10;;;13.70;99.90;;;14.61;100.00;98113.81;10314464;28;20354;-66
2023/10/03 00:08:56;;;;;;;39.53;21.83;;;13.70;99.90;;;14.61;100.00;98116.38;10314803;28;20698;-66
2023/10/03 00:14:03;;;;;;;37.35;21.83;;;13.70;99.90;;;14.50;100.00;98107.25;10315088;28;20234;-66
2023/10/03 00:19:06;;;;;;;36.50;21.65;;;13.60;99.90;;;14.48;100.00;98104.63;10313272;28;20237;-66
2023/10/03 00:24:10;;;;;;;42.13;23.92;;;13.60;99.90;;;14.49;100.00;98106.38;10311020;28;20235;-66
2023/10/03 00:29:23;;;;;;;39.78;21.83;;;13.70;99.90;;;14.51;100.00;98103.88;10313064;28;20696;-65
2023/10/03 00:34:27;;;;;;;35.85;21.75;;;13.60;99.90;;;14.46;100.00;98092.50;10312028;28;20610;-66
2023/10/03 00:39:30;;;;;;;40.13;22.40;;;13.60;99.90;;;14.38;99.89;98093.03;10313175;28;20235;-66
2023/10/03 00:44:35;;;;;;;38.67;22.02;;;13.50;99.90;;;14.26;100.00;98086.44;10312125;28;20231;-65
2023/10/03 00:49:38;;;;;;;42.35;23.52;;;13.40;99.90;;;14.26;100.00;98084.75;10315673;28;20765;-67
2023/10/03 00:54:41;;;;;;;40.67;22.98;;;13.40;99.90;;;14.14;100.00;98077.34;10315141;28;20238;-66
2023/10/03 00:59:48;;;;;;;35.95;21.20;;;13.30;99.90;;;14.16;100.00;98074.84;10311569;28;20239;-66
2023/10/03 01:04:52;;;;;;;44.95;23.65;;;13.30;99.90;;;14.13;100.00;98069.56;10314158;28;20231;-66
2023/10/03 01:09:55;;;;;;;44.00;22.73;;;13.30;99.90;;;14.05;100.00;98068.31;10309560;28;20341;-66
2023/10/03 01:15:03;;;;;;;43.13;24.13;;;13.20;99.90;;;14.01;100.00;98063.84;10311694;28;20238;-66
2023/10/03 01:20:16;;;;;;;38.50;22.15;;;13.20;99.90;;;13.95;99.96;98059.31;10317218;28;20223;-66
2023/10/03 01:25:21;;;;;;;40.72;22.08;;;13.10;99.90;;;13.85;99.60;98042.59;10314329;28;20235;-66
2023/10/03 01:30:26;;;;;;;40.05;22.58;;;13.00;99.90;;;13.77;99.66;98049.06;10313878;28;20235;-67
2023/10/03 01:35:30;;;;;;;36.63;20.98;;;12.90;99.90;;;13.77;100.00;98053.31;10314242;28;20242;-67
2023/10/03 01:40:36;;;;;;;38.08;22.20;;;12.90;99.90;;;13.71;99.73;98051.34;10309407;28;20238;-67
2023/10/03 01:45:40;;;;;;;40.03;21.85;;;12.80;99.90;;;13.67;99.64;98041.69;10315572;28;20230;-67
2023/10/03 01:50:44;;;;;;;42.58;22.17;;;12.80;99.90;;;13.65;98.42;98038.16;10309067;28;20226;-67
2023/10/03 01:55:49;;;;;;;39.00;21.30;;;12.70;99.90;;;13.48;99.02;98040.81;10310550;28;20238;-66
2023/10/03 02:00:52;;;;;;;37.60;20.73;;;12.60;99.90;;;13.38;100.00;98038.59;10310831;28;20214;-67
2023/10/03 02:05:56;;;;;;;37.78;21.20;;;12.50;99.90;;;13.28;99.92;98032.16;10310289;28;20238;-67
2023/10/03 02:11:00;;;;;;;34.20;18.92;;;12.40;99.90;;;13.23;100.00;98032.69;10309444;28;20740;-66
2023/10/03 02:16:07;;;;;;;40.08;21.17;;;12.40;99.90;;;13.15;100.00;98031.44;10317851;28;20235;-67
2023/10/03 02:21:10;;;;;;;39.03;21.17;;;12.30;99.90;;;13.06;99.97;98022.47;10317739;28;20369;-67
2023/10/03 02:26:16;;;;;;;37.88;20.90;;;12.20;99.90;;;13.11;99.60;98016.69;10317832;28;20351;-67
2023/10/03 02:31:20;;;;;;;34.87;20.03;;;12.20;99.90;;;13.12;100.00;98018.44;10318719;28;20329;-66
2023/10/03 02:36:23;;;;;;;39.97;22.77;;;12.30;99.90;;;13.04;100.00;98021.50;10320748;28;20625;-65
2023/10/03 02:41:30;;;;;;;38.78;21.60;;;12.20;99.90;;;13.04;100.00;98015.50;10317455;28;21932;-66
2023/10/03 02:46:34;;;;;;;38.05;21.25;;;12.20;99.90;;;12.97;100.00;98006.63;10313340;28;20392;-65
2023/10/03 02:51:37;;;;;;;36.15;20.80;;;12.10;99.90;;;12.91;99.76;98000.31;10314857;28;20223;-66
2023/10/03 02:56:42;;;;;;;39.88;21.50;;;12.00;99.90;;;12.78;100.00;97999.66;10317579;28;20231;-66
2023/10/03 03:01:52;;;;;;;38.33;22.05;;;11.90;99.90;;;12.78;100.00;97991.09;10318418;28;20254;-65
2023/10/03 03:07:01;;;;;;;36.60;21.48;;;12.00;99.90;;;12.80;100.00;97984.38;10313311;28;20277;-66
2023/10/03 03:12:07;;;;;;;36.55;21.58;;;12.00;99.90;;;12.76;100.00;97980.78;10315350;28;20787;-66
2023/10/03 03:17:14;;;;;;;37.28;21.77;;;12.00;99.90;;;12.80;100.00;97982.69;10315908;28;20245;-65
2023/10/03 03:22:21;;;;;;;39.22;20.80;;;12.00;99.90;;;12.83;100.00;97974.25;10315140;28;20227;-66
2023/10/03 03:27:26;;;;;;;37.28;22.13;;;12.10;99.90;;;12.81;100.00;97971.59;10315860;28;20233;-66
2023/10/03 03:32:30;;;;;;;39.30;22.15;;;12.00;99.90;;;12.78;100.00;97974.03;10314782;28;20227;-67
2023/10/03 03:37:37;;;;;;;40.53;22.45;;;12.10;99.90;;;12.85;100.00;97977.78;10316354;28;20321;-67
2023/10/03 03:42:42;;;;;;;39.20;21.52;;;12.10;99.90;;;12.91;100.00;97983.22;10317056;28;20245;-66
2023/10/03 03:47:45;;;;;;;37.83;21.45;;;12.10;99.90;;;12.96;100.00;97986.91;10310460;28;20248;-67
2023/10/03 03:52:49;;;;;;;40.97;21.67;;;12.20;99.90;;;12.96;100.00;97984.34;10313943;28;20227;-66
2023/10/03 03:57:54;;;;;;;38.80;21.15;;;12.20;99.90;;;13.09;99.06;97983.25;10312928;28;20242;-67
2023/10/03 04:02:59;;;;;;;35.55;20.35;;;12.10;99.90;;;12.89;99.87;97978.81;10310630;28;20647;-67
2023/10/03 04:08:04;;;;;;;38.05;20.75;;;11.90;99.90;;;12.78;98.75;97983.41;10313293;28;20233;-67
2023/10/03 04:13:10;;;;;;;37.03;19.92;;;11.90;99.90;;;12.58;100.00;97980.72;10315858;28;20234;-67
2023/10/03 04:18:15;;;;;;;36.75;20.90;;;11.80;99.90;;;12.63;100.00;97992.09;10314861;28;20633;-67
2023/10/03 04:23:18;;;;;;;39.33;21.08;;;11.80;99.90;;;12.71;100.00;97977.09;10315203;28;20293;-67
2023/10/03 04:28:23;;;;;;;36.35;20.52;;;11.90;99.90;;;12.63;100.00;97976.69;10318804;28;20241;-67
2023/10/03 04:33:26;;;;;;;37.15;20.70;;;11.90;99.90;;;12.68;100.00;97978.63;10315173;28;20231;-67
2023/10/03 04:38:29;;;;;;;37.65;20.20;;;11.80;99.90;;;12.66;100.00;97980.22;10312273;28;20234;-67
2023/10/03 04:43:34;;;;;;;36.28;20.15;;;11.90;99.90;;;12.71;100.00;97968.53;10315485;28;20394;-64
2023/10/03 04:48:37;;;;;;;34.05;20.38;;;11.90;99.90;;;12.70;100.00;97964.19;10310345;28;20607;-66
2023/10/03 04:53:41;;;;;;;39.80;22.17;;;11.90;99.90;;;12.66;100.00;97969.97;10315926;28;20227;-66
2023/10/03 04:58:45;;;;;;;37.47;21.20;;;11.90;99.90;;;12.65;100.00;97970.75;10312685;28;20321;-67
2023/10/03 05:03:49;;;;;;;43.13;21.95;;;12.00;99.90;;;12.77;100.00;97969.72;10313642;28;20519;-67
2023/10/03 05:08:52;;;;;;;40.28;22.33;;;12.10;99.90;;;12.85;100.00;97970.97;10308988;28;20910;-66
2023/10/03 05:13:57;;;;;;;37.65;20.13;;;12.10;99.90;;;12.88;100.00;97967.69;10311542;28;20235;-66
2023/10/03 05:19:01;;;;;;;36.70;20.23;;;12.20;99.90;;;12.98;100.00;97967.31;10311845;28;20619;-69
2023/10/03 05:24:09;;;;;;;32.08;18.98;;;12.20;99.90;;;12.95;100.00;97977.44;10312452;28;20249;-67
2023/10/03 05:29:13;;;;;;;38.67;20.98;;;12.10;99.90;;;12.94;100.00;97975.69;10315733;28;20237;-67
2023/10/03 05:34:20;;;;;;;37.50;20.40;;;12.20;99.90;;;13.01;100.00;97975.16;10312626;28;20247;-66
2023/10/03 05:39:26;;;;;;;35.17;20.63;;;12.20;99.90;;;13.01;100.00;97970.03;10314943;28;20623;-68
2023/10/03 05:44:32;;;;;;;38.92;21.55;;;12.20;99.90;;;13.12;100.00;97973.13;10309435;28;20231;-67
2023/10/03 05:49:35;;;;;;;38.17;21.25;;;12.30;99.90;;;13.10;100.00;97974.72;10311449;28;20219;-67
2023/10/03 05:54:38;;;;;;;38.67;21.40;;;12.30;99.90;;;13.18;100.00;97980.25;10311497;28;20227;-65
2023/10/03 05:59:43;;;;;;;36.00;20.38;;;12.40;99.90;;;13.22;100.00;97974.44;10313087;28;20246;-65
2023/10/03 06:04:46;;;;;;;34.67;20.38;;;12.50;99.90;;;13.30;100.00;97978.31;10312777;28;20234;-67
2023/10/03 06:09:49;;;;;;;34.17;19.65;;;12.50;99.90;;;13.43;100.00;97978.09;10322983;28;20314;-66
2023/10/03 06:14:54;;;;;;;34.05;19.95;;;12.60;99.90;;;13.34;100.00;97982.78;10318763;28;20238;-67
2023/10/03 06:19:57;;;;;;;32.17;19.33;;;12.60;99.90;;;13.50;100.00;97980.13;10326166;28;20254;-65
2023/10/03 06:25:00;;;;;;;35.85;20.23;;;12.80;99.90;;;13.84;100.00;97992.00;10321072;28;20231;-68
2023/10/03 06:30:07;;;;;;;32.83;18.67;;;13.10;99.90;;;14.63;98.93;97991.28;10324333;28;20235;-68
2023/10/03 06:35:11;;;;;;;38.17;20.38;;;13.70;99.90;;;15.47;91.45;97996.47;10321091;28;20273;-67
2023/10/03 06:40:16;;;;;;;34.33;19.70;;;14.20;99.90;;;16.31;86.97;97983.34;10313172;28;20230;-66
2023/10/03 06:45:21;;;;;;;36.53;20.33;;;15.00;99.90;;;16.53;86.04;97997.94;10315859;28;20232;-67
2023/10/03 06:50:24;;;;;;;32.10;19.02;;;15.40;99.90;;;16.56;83.97;97991.16;10314090;28;20231;-68
2023/10/03 06:55:27;;;;;;;32.45;19.60;;;15.50;99.90;;;16.58;85.89;97997.25;10311702;28;20234;-68
2023/10/03 07:00:32;;;;;;;34.72;21.77;;;15.50;99.90;;;17.15;82.22;97988.94;10318533;28;20752;-70
2023/10/03 07:05:36;;;;;;;37.22;23.05;;;16.10;99.90;;;17.51;80.20;98002.19;10321150;28;20235;-67
2023/10/03 07:10:40;;;;;;;37.83;22.67;;;16.50;99.90;;;17.81;79.26;98010.88;10318830;28;20778;-67
2023/10/03 07:15:44;;;;;;;35.88;21.13;;;16.80;99.90;;;18.17;77.19;98000.75;10322825;28;20667;-67
2023/10/03 07:20:48;;;;;;;35.20;21.60;;;17.20;99.90;;;18.32;78.79;98006.38;10323747;28;20805;-66
2023/10/03 07:25:51;;;;;;;33.80;21.73;;;17.40;99.90;;;18.72;76.31;98001.44;10319530;28;20660;-67
2023/10/03 07:30:56;;;;;;;33.63;22.08;;;17.80;99.90;;;19.10;75.59;98005.94;10324177;28;20250;-67
2023/10/03 07:36:05;;;;;;;36.88;22.90;;;18.30;99.90;;;19.35;74.65;97998.81;10322195;28;20687;-67
2023/10/03 07:41:09;;;;;;;35.63;22.75;;;18.60;99.90;;;19.76;73.06;98005.00;10318634;28;20262;-65
2023/10/03 07:46:20;;;;;;;33.97;21.60;;;19.10;99.90;;;20.09;72.25;98005.72;10322455;28;20241;-67
2023/10/03 07:51:26;;;;;;;35.55;22.50;;;19.40;99.90;;;20.50;71.28;98000.53;10324947;28;20235;-67
2023/10/03 07:56:31;;;;;;;34.13;22.30;;;19.80;99.90;;;20.79;70.86;97995.94;10320199;28;20249;-67
2023/10/03 08:01:38;;;;;;;35.03;21.83;;;20.20;99.90;;;21.24;69.49;97995.88;10322864;28;20314;-67
2023/10/03 08:07:01;;;;;;;35.75;24.38;;;20.70;99.90;;;21.71;68.70;97989.72;10319869;28;20238;-67
2023/10/03 08:12:11;;;;;;;30.35;22.23;;;21.20;99.90;;;22.11;67.43;98001.56;10320178;28;20243;-68
2023/10/03 08:17:17;;;;;;;31.55;21.52;;;21.60;99.90;;;22.55;66.31;97996.09;10318239;28;20313;-68
2023/10/03 08:22:20;;;;;;;33.20;21.17;;;22.00;99.90;;;23.02;65.23;97989.69;10317782;28;20299;-66
2023/10/03 08:27:30;;;;;;;34.72;20.30;;;22.50;99.90;;;23.50;63.69;97988.38;10320717;28;20243;-67
2023/10/03 08:32:39;;;;;;;31.70;19.88;;;23.00;99.90;;;24.02;62.64;97993.97;10315200;28;20223;-67
2023/10/03 08:37:43;;;;;;;28.75;19.17;;;23.60;99.90;;;24.55;60.44;97985.53;10316258;28;20255;-67
2023/10/03 08:42:52;;;;;;;22.55;13.75;;;24.20;99.90;;;24.98;54.49;97984.78;10315171;28;20227;-68
2023/10/03 08:48:05;;;;;;;19.23;12.88;;;24.60;99.60;;;25.54;51.92;97977.00;10314225;28;20273;-67
2023/10/03 08:53:16;;;;;;;12.15;8.75;;;25.20;97.70;;;26.18;46.73;97975.16;10314508;28;20225;-67
2023/10/03 08:58:25;;;;;;;8.07;7.10;;;25.90;93.60;;;26.62;43.28;97961.91;10309150;28;20266;-67
2023/10/03 09:03:46;;;;;;;7.30;6.00;;;26.30;91.10;;;27.00;42.12;97967.78;10307420;28;20235;-68
2023/10/03 09:08:52;;;;;;;7.18;5.75;;;26.80;88.60;;;27.25;40.43;97964.16;10307334;28;20627;-67
2023/10/03 09:13:59;;;;;;;7.07;5.28;;;26.90;86.20;;;27.44;39.43;97966.59;10308292;28;20265;-67
2023/10/03 09:19:04;;;;;;;7.20;6.00;;;27.10;84.00;;;27.66;38.89;97964.66;10312671;28;21951;-67
2023/10/03 09:24:14;;;;;;;7.82;5.70;;;27.30;82.50;;;27.57;38.59;97965.63;10305079;28;20230;-68
2023/10/03 09:29:29;;;;;;;6.40;5.57;;;27.20;81.90;;;27.79;39.15;97966.34;10311824;28;20309;-68
2023/10/03 09:34:40;;;;;;;7.63;6.07;;;27.50;82.50;;;27.78;38.40;97960.16;10309874;28;20348;-67
2023/10/03 09:39:49;;;;;;;7.63;6.47;;;27.50;81.70;;;27.92;39.55;97944.28;10308078;28;20231;-68
2023/10/03 09:44:57;;;;;;;7.70;6.43;;;27.60;83.40;;;28.07;38.75;97945.84;10306692;28;20226;-67
2023/10/03 09:50:06;;;;;;;9.15;6.93;;;27.70;82.30;;;28.30;39.12;97937.69;10305856;28;20711;-66
2023/10/03 09:55:21;;;;;;;9.80;6.50;;;27.90;82.00;;;28.44;38.81;97934.94;10304357;28;20234;-65
2023/10/03 10:00:38;;;;;;;8.35;6.57;;;28.00;82.50;;;28.41;39.55;97943.69;10303383;28;20231;-66
2023/10/03 10:06:04;;;;;;;8.10;6.25;;;27.90;83.80;;;28.52;39.67;97928.66;10305881;28;20240;-65
2023/10/03 10:11:09;;;;;;;9.27;5.97;;;28.20;83.00;;;28.47;39.16;97935.78;10306038;28;20228;-67
2023/10/03 10:16:15;;;;;;;6.32;5.72;;;28.10;82.00;;;28.48;39.14;97928.75;10305325;28;20241;-67
2023/10/03 10:21:25;;;;;;;6.95;6.07;;;28.10;82.40;;;28.51;39.69;97915.56;10305527;28;20226;-67
2023/10/03 10:26:30;;;;;;;9.02;5.70;;;28.10;82.50;;;28.62;39.53;97918.03;10303969;28;20227;-64
2023/10/03 10:31:37;;;;;;;6.65;5.85;;;28.30;83.00;;;28.77;38.76;97911.69;10305530;28;20361;-64
2023/10/03 10:37:02;;;;;;;7.53;5.80;;;28.30;81.70;;;28.69;39.45;97899.50;10307241;28;20234;-64
2023/10/03 10:42:10;;;;;;;7.05;5.47;;;28.40;82.00;;;28.85;39.38;97900.16;10300806;28;20226;-65
2023/10/03 10:47:14;;;;;;;7.25;5.68;;;28.50;81.90;;;29.02;38.66;97886.72;10301579;28;21721;-66
2023/10/03 10:52:19;;;;;;;6.55;5.82;;;28.60;82.20;;;28.88;39.35;97886.09;10301350;28;20721;-66
2023/10/03 10:57:28;;;;;;;8.00;6.00;;;28.30;83.00;;;28.83;39.74;97885.28;10310986;28;20737;-66
2023/10/03 11:02:33;;;;;;;7.63;5.60;;;28.10;83.50;;;29.06;39.53;97883.16;10295640;28;20983;-66
2023/10/03 11:07:42;;;;;;;7.43;5.80;;;28.50;82.60;;;29.11;39.45;97881.34;10298040;28;20365;-65
2023/10/03 11:12:59;;;;;;;6.72;5.35;;;28.50;83.00;;;29.36;38.75;97880.91;10301443;28;20730;-66
2023/10/03 11:18:04;;;;;;;7.40;5.50;;;28.80;82.30;;;29.43;39.29;97866.72;10299404;28;20618;-66
2023/10/03 11:23:18;;;;;;;7.10;6.20;;;29.00;82.40;;;29.56;38.59;97854.19;10296713;28;20393;-66
2023/10/03 11:28:21;;;;;;;5.97;5.38;;;29.00;82.30;;;29.69;39.22;97852.22;10299399;28;20234;-65
2023/10/03 11:33:24;;;;;;;6.65;5.28;;;29.20;82.70;;;29.89;38.90;97865.88;10301164;28;20319;-65
2023/10/03 11:38:32;;;;;;;6.18;4.95;;;29.30;82.60;;;29.87;39.27;97851.84;10297662;28;20310;-64
2023/10/03 11:43:44;;;;;;;6.38;5.32;;;29.20;82.70;;;29.73;38.71;97859.16;10298361;28;20254;-65
2023/10/03 11:48:47;;;;;;;7.45;6.07;;;29.00;83.20;;;29.51;39.71;97861.34;10297954;28;20229;-67
2023/10/03 11:53:53;;;;;;;7.28;5.68;;;28.80;83.70;;;29.48;39.04;97862.25;10299741;28;20233;-66
2023/10/03 11:58:56;;;;;;;9.02;6.05;;;28.70;82.90;;;29.30;39.83;97873.09;10299056;28;20278;-66
2023/10/03 12:03:59;;;;;;;6.82;6.18;;;28.50;83.50;;;29.05;40.58;97870.91;10298029;28;20223;-67
2023/10/03 12:09:08;;;;;;;8.88;5.72;;;28.30;84.40;;;29.21;39.69;97874.13;10294335;28;20594;-67
2023/10/03 12:14:12;;;;;;;5.82;5.22;;;28.30;84.10;;;29.39;40.08;97870.34;10311507;28;20542;-65
2023/10/03 12:19:15;;;;;;;6.32;5.70;;;28.50;84.30;;;29.12;41.06;97869.91;10321228;28;20241;-67
2023/10/03 12:24:20;;;;;;;8.38;6.25;;;28.30;85.00;;;28.80;41.28;97865.13;10298948;28;20242;-67
2023/10/03 12:29:31;;;;;;;9.38;5.80;;;28.10;85.40;;;28.56;42.39;97865.50;10299534;28;20222;-64
2023/10/03 12:34:34;;;;;;;7.07;5.93;;;27.90;86.20;;;28.45;41.99;97873.56;10306166;28;20225;-67
2023/10/03 12:39:39;;;;;;;7.72;5.95;;;27.60;87.00;;;28.45;42.31;97873.56;10303680;28;20234;-67
2023/10/03 12:44:42;;;;;;;6.85;6.18;;;27.70;86.90;;;28.12;43.49;97865.19;10304747;28;20230;-67
2023/10/03 12:49:45;;;;;;;6.78;6.00;;;27.50;87.40;;;28.01;43.49;97877.59;10303399;28;20227;-67
2023/10/03 12:54:50;;;;;;;8.73;6.15;;;27.40;88.20;;;27.98;44.42;97885.53;10304163;28;20234;-66
2023/10/03 12:59:53;;;;;;;6.82;6.13;;;27.40;89.10;;;27.94;43.80;97896.97;10302280;28;20234;-66
2023/10/03 13:04:57;;;;;;;10.00;6.45;;;27.30;88.30;;;27.73;43.65;97908.53;10293872;28;20258;-68
2023/10/03 13:10:03;;;;;;;8.45;6.60;;;27.10;88.60;;;27.40;44.91;97905.38;10289511;28;20309;-67
2023/10/03 13:15:10;;;;;;;8.38;7.07;;;26.80;89.20;;;27.20;45.27;97918.69;10290428;28;20238;-65
2023/10/03 13:20:13;;;;;;;6.50;5.90;;;26.50;90.30;;;27.14;46.39;97935.31;10292766;28;20230;-67
2023/10/03 13:25:20;;;;;;;8.30;6.80;;;26.40;91.00;;;27.03;45.95;97937.16;10291690;28;20230;-68
2023/10/03 13:30:27;;;;;;;7.97;5.97;;;26.20;91.00;;;27.06;46.23;97941.50;10295501;28;20226;-68
2023/10/03 13:35:33;;;;;;;9.48;7.18;;;26.30;91.10;;;27.27;46.41;97925.63;10305303;28;20230;-68
2023/10/03 13:40:37;;;;;;;8.43;6.68;;;26.60;90.90;;;27.26;46.41;97923.88;10303907;28;20223;-67
2023/10/03 13:45:42;;;;;;;8.45;6.80;;;26.50;91.20;;;27.27;47.10;97933.50;10295324;28;20230;-68
2023/10/03 13:50:45;;;;;;;8.88;7.03;;;26.40;91.70;;;27.23;46.59;97929.16;10294661;28;20792;-69
2023/10/03 13:55:53;;;;;;;7.88;6.05;;;26.50;91.20;;;27.17;46.54;97950.19;10295449;28;20353;-69
2023/10/03 14:00:56;;;;;;;10.63;6.88;;;26.30;91.60;;;26.95;46.32;97970.44;10291672;28;20226;-68
2023/10/03 14:05:59;;;;;;;7.80;6.68;;;26.10;91.20;;;26.82;46.86;97995.03;10296632;28;20304;-67
2023/10/03 14:11:05;;;;;;;10.32;7.18;;;25.90;91.50;;;26.43;49.28;97999.53;10294624;28;20611;-67
2023/10/03 14:16:08;;;;;;;9.75;7.50;;;25.50;93.20;;;26.26;50.03;97984.72;10312987;28;20227;-67
2023/10/03 14:21:12;;;;;;;8.65;7.57;;;25.30;93.90;;;26.22;50.51;97998.72;10313795;28;21243;-67
2023/10/03 14:26:16;;;;;;;42.92;39.05;;;25.30;94.30;;;26.22;51.04;97987.38;10308482;28;20234;-67
2023/10/03 14:31:20;;;;;;;11.35;9.48;;;25.30;94.50;;;26.38;49.94;97986.44;10305318;28;20230;-67
2023/10/03 14:36:23;;;;;;;9.60;8.52;;;25.40;94.10;;;26.36;49.60;98001.31;10314214;28;20245;-68
2023/10/03 14:41:28;;;;;;;8.57;7.50;;;25.50;93.70;;;26.40;48.47;97997.78;10308694;28;20233;-68
2023/10/03 14:46:31;;;;;;;7.93;7.03;;;25.60;92.70;;;26.33;49.69;98014.44;10309648;28;20804;-67
2023/10/03 14:51:35;;;;;;;9.98;6.82;;;25.60;93.50;;;26.36;47.70;98010.94;10309992;28;20585;-65
2023/10/03 14:56:40;;;;;;;9.23;6.05;;;25.50;92.30;;;26.16;47.60;98026.72;10308996;28;20301;-68
2023/10/03 15:01:44;;;;;;;6.80;5.78;;;25.20;92.30;;;25.80;47.80;98023.22;10312716;28;20255;-67
2023/10/03 15:06:47;;;;;;;8.30;6.28;;;24.90;91.90;;;25.60;47.54;98039.81;10311506;28;20226;-68
2023/10/03 15:11:52;;;;;;;6.40;5.80;;;24.80;91.80;;;25.65;47.62;98031.97;10306787;28;20633;-67
2023/10/03 15:16:56;;;;;;;7.65;5.93;;;24.80;92.00;;;25.58;48.28;98031.13;10308336;28;20618;-68
2023/10/03 15:22:00;;;;;;;6.28;5.65;;;24.70;92.30;;;25.44;48.50;98040.72;10317904;28;20230;-69
2023/10/03 15:27:04;;;;;;;6.90;5.70;;;24.60;92.50;;;25.31;48.89;98031.09;10318357;28;20235;-68
2023/10/03 15:32:08;;;;;;;6.75;5.65;;;24.40;92.90;;;25.34;49.30;98033.69;10313618;28;20256;-70
2023/10/03 15:37:16;;;;;;;7.53;5.70;;;24.40;93.00;;;25.33;48.92;98034.59;10321485;28;20226;-68
2023/10/03 15:42:21;;;;;;;9.98;5.47;;;24.40;92.90;;;25.30;48.57;98039.81;10326996;28;20238;-67
2023/10/03 15:47:24;;;;;;;6.82;4.88;;;24.50;92.40;;;24.99;48.97;98037.09;10320753;28;20230;-69
2023/10/03 15:52:27;;;;;;;6.68;4.72;;;24.40;92.40;;;24.85;49.06;98052.75;10320966;28;20230;-68
2023/10/03 15:57:32;;;;;;;6.97;5.05;;;24.30;92.50;;;24.75;50.96;98058.78;10308250;28;20242;-68
2023/10/03 16:02:36;;;;;;;4.95;4.53;;;24.10;93.80;;;24.63;51.32;98083.16;10311162;28;20218;-67
2023/10/03 16:07:39;;;;;;;5.45;4.50;;;23.80;94.50;;;24.37;53.14;98110.84;10309912;28;20233;-68
2023/10/03 16:12:44;;;;;;;10.30;4.63;;;23.60;95.20;;;22.98;71.01;98233.88;10306442;28;20233;-67
2023/10/03 16:17:47;;;;;;;7.13;4.40;;;22.30;99.90;;;20.99;88.77;98262.28;10306695;28;20657;-66
2023/10/03 16:22:51;;;;;;;5.22;3.40;;;20.40;99.90;;;19.75;99.18;98293.78;10310389;28;20314;-65
2023/10/03 16:27:56;;;;;;;7.20;4.05;;;19.30;99.90;;;19.06;100.00;98319.38;10309451;28;20238;-67
2023/10/03 16:32:59;;;;;;;6.68;4.15;;;18.60;99.90;;;18.71;100.00;98363.09;10305205;28;20718;-66
2023/10/03 16:38:02;;;;;;;6.38;4.18;;;18.20;99.90;;;18.37;100.00;98377.53;10305587;28;20237;-74
2023/10/03 16:43:08;;;;;;;6.88;3.72;;;17.80;99.90;;;18.16;100.00;98389.69;10305812;28;20627;-68
2023/10/03 16:48:11;;;;;;;5.65;3.20;;;17.60;99.90;;;17.99;100.00;98400.31;10306832;28;20219;-68
2023/10/03 16:53:16;;;;;;;5.15;3.33;;;17.40;99.90;;;17.84;100.00;98415.28;10307153;28;20743;-68
2023/10/03 16:58:20;;;;;;;4.00;3.47;;;17.30;99.90;;;17.68;100.00;98449.97;10309538;28;20235;-67
2023/10/03 17:03:23;;;;;;;4.30;3.20;;;17.20;99.90;;;17.87;100.00;98461.94;10308184;28;20261;-68
2023/10/03 17:08:27;;;;;;;4.05;3.30;;;17.20;99.90;;;17.72;100.00;98484.59;10304591;28;20227;-68
2023/10/03 17:13:31;;;;;;;4.40;3.47;;;17.20;99.90;;;17.55;100.00;98500.31;10312377;28;20556;-68
2023/10/03 17:18:36;;;;;;;6.40;3.88;;;17.00;99.90;;;17.67;100.00;98523.19;10308089;28;20230;-67
2023/10/03 17:23:40;;;;;;;5.63;3.63;;;17.10;99.90;;;17.56;100.00;98543.44;10306801;28;20245;-69
2023/10/03 17:28:45;;;;;;;3.95;3.08;;;17.00;99.90;;;17.59;100.00;98558.19;10306315;28;20549;-67
2023/10/03 17:33:48;;;;;;;4.18;3.30;;;17.00;99.90;;;17.53;100.00;98579.50;10304500;28;20654;-67
2023/10/03 17:38:52;;;;;;;3.55;3.10;;;16.90;99.90;;;17.49;100.00;98603.47;10303608;28;20242;-66
2023/10/03 17:43:56;;;;;;;5.30;3.03;;;16.90;99.90;;;17.39;100.00;98615.94;10301983;28;20242;-67
2023/10/03 17:48:59;;;;;;;3.15;2.85;;;16.80;99.90;;;17.33;100.00;98624.31;10304075;28;20238;-67
2023/10/03 17:54:03;;;;;;;4.80;3.00;;;16.70;99.90;;;17.23;100.00;98625.63;10298729;28;22119;-68
2023/10/03 17:59:07;;;;;;;3.35;2.80;;;16.60;99.90;;;17.25;100.00;98642.06;10308658;28;20222;-67
2023/10/03 18:04:11;;;;;;;4.53;3.28;;;16.60;99.90;;;17.13;100.00;98648.41;10308395;28;20229;-67
2023/10/03 18:09:15;;;;;;;3.22;2.92;;;16.50;99.90;;;17.19;100.00;98659.00;10305715;28;20234;-67
2023/10/03 18:14:20;;;;;;;3.40;2.70;;;16.50;99.90;;;17.05;100.00;98672.22;10302029;28;20235;-66
2023/10/03 18:19:24;;;;;;;3.53;2.50;;;16.40;99.90;;;17.03;100.00;98683.28;10304995;28;20235;-67
2023/10/03 18:24:28;;;;;;;2.88;2.53;;;16.40;99.90;;;16.95;100.00;98694.97;10304150;28;20231;-67
2023/10/03 18:29:32;;;;;;;2.85;2.65;;;16.30;99.90;;;16.83;100.00;98700.47;10302108;28;20242;-67
2023/10/03 18:34:36;;;;;;;2.97;2.50;;;16.20;99.90;;;16.73;100.00;98712.00;10302369;28;20417;-67
2023/10/03 18:39:39;;;;;;;2.88;2.45;;;16.10;99.90;;;16.70;100.00;98708.41;10300898;28;20239;-66
2023/10/03 18:44:44;;;;;;;3.75;2.40;;;16.00;99.90;;;16.66;100.00;98738.38;10306986;28;20618;-68
2023/10/03 18:49:47;;;;;;;2.67;2.45;;;16.00;99.90;;;16.55;100.00;98745.59;10307348;28;20665;-67
2023/10/03 18:54:51;;;;;;;2.95;2.50;;;15.90;99.90;;;16.43;100.00;98763.09;10306024;28;20226;-66
2023/10/03 18:59:55;;;;;;;3.05;2.53;;;15.90;99.90;;;16.40;100.00;98787.03;10312808;28;20234;-66
2023/10/03 19:04:58;;;;;;;2.80;2.15;;;15.80;99.90;;;16.32;100.00;98792.63;10312831;28;20241;-66
2023/10/03 19:10:02;;;;;;;3.25;2.10;;;15.70;99.90;;;16.27;100.00;98792.41;10308382;28;20227;-67
2023/10/03 19:15:09;;;;;;;3.63;2.90;;;15.60;99.90;;;16.09;100.00;98799.22;10312773;28;20222;-67
2023/10/03 19:20:13;;;;;;;2.65;2.45;;;15.50;99.90;;;16.23;100.00;98810.25;10313225;28;20239;-67
2023/10/03 19:25:16;;;;;;;3.00;2.45;;;15.60;99.90;;;16.29;100.00;98818.28;10312726;28;20235;-67
2023/10/03 19:30:21;;;;;;;2.70;2.45;;;15.60;99.90;;;16.18;100.00;98831.50;10313340;28;20230;-67
2023/10/03 19:35:25;;;;;;;2.90;2.65;;;15.50;99.90;;;15.97;100.00;98851.06;10315991;28;20278;-67
2023/10/03 19:40:31;;;;;;;3.08;2.65;;;15.30;99.90;;;15.98;100.00;98847.66;10309607;28;20261;-67
2023/10/03 19:45:38;;;;;;;3.97;2.55;;;15.30;99.90;;;15.79;100.00;98860.41;10308349;28;20237;-67
2023/10/03 19:50:41;;;;;;;3.13;2.70;;;15.20;99.90;;;15.75;100.00;98869.69;10313390;28;20761;-67
2023/10/03 19:55:45;;;;;;;3.40;2.35;;;15.00;99.90;;;15.46;100.00;98887.00;10310993;28;22269;-66
2023/10/03 20:00:49;;;;;;;3.38;2.50;;;14.80;99.90;;;15.44;100.00;98908.34;10309276;28;20230;-66
2023/10/03 20:05:52;;;;;;;3.60;3.10;;;14.80;99.90;;;15.42;100.00;98903.09;10310973;28;20734;-66
2023/10/03 20:10:56;;;;;;;3.45;3.13;;;14.80;99.90;;;15.55;100.00;98917.53;10303327;28;20238;-67
2023/10/03 20:16:00;;;;;;;4.22;3.20;;;14.80;99.90;;;15.39;100.00;98932.94;10312371;28;20231;-66
2023/10/03 20:21:04;;;;;;;3.90;3.10;;;14.70;99.90;;;15.25;100.00;98932.19;10317554;28;20250;-66
2023/10/03 20:26:07;;;;;;;4.18;3.10;;;14.60;99.90;;;15.27;100.00;98941.78;10313403;28;20336;-66
2023/10/03 20:31:13;;;;;;;4.63;3.55;;;14.60;99.90;;;15.19;100.00;98963.63;10314080;28;20231;-66
2023/10/03 20:36:16;;;;;;;3.70;3.40;;;14.50;99.90;;;15.21;100.00;98962.03;10313060;28;20231;-66
2023/10/03 20:41:19;;;;;;;3.50;2.97;;;14.50;99.90;;;15.18;100.00;98967.00;10311180;28;20235;-67
2023/10/03 20:46:25;;;;;;;3.20;2.85;;;14.50;99.90;;;14.95;100.00;98973.44;10312139;28;20253;-66
2023/10/03 20:51:28;;;;;;;3.58;3.25;;;14.40;99.90;;;15.05;100.00;98985.13;10310850;28;20371;-67